KLHB/LHB METAR and TAF weather

Enter ICAO airport designator
Station Type Date Time Source
KLHB METAR 2019/04/20 22:35 UTC NOAA

KLHB 202235Z AUTO 16004KT 10SM CLR 25/13 A3000 RMK AO2 T02480131


Station Type Date Time Source
KLHB Decoded METAR 2019/04/20 22:35 UTC NOAA

Hearne, Hearne Municipal Airport, TX, United States (KLHB) 30-52-18N 096-37-20W
Apr 20, 2019 - 06:35 PM EDT / 2019.04.20 2235 UTC
Wind: from the SSE (160 degrees) at 5 MPH (4 KT):0
Visibility: 10 mile(s):0
Sky conditions: clear
Temperature: 76.6 F (24.8 C)
Dew Point: 55.6 F (13.1 C)
Relative Humidity: 48%
Pressure (altimeter): 30 in. Hg (1015 hPa)
ob: KLHB 202235Z AUTO 16004KT 10SM CLR 25/13 A3000 RMK AO2 T02480131
cycle: 22

Station Type Date Time Source
KLHB TAF UTC NOAA

Error!

Example: see airport list